TimeEST,TemperatureF,Dew PointF,Humidity,Sea Level PressureIn,VisibilityMPH,Wind Direction,Wind SpeedMPH,Gust SpeedMPH,PrecipitationIn,Events,Conditions,WindDirDegrees,DateUTC
12:36 AM,10.4,5.0,79,30.05,3.0,Calm,Calm,-,0.00,Snow,Light Snow,0,2013-01-24 05:36:00
12:40 AM,10.4,5.0,79,30.05,1.8,South,3.5,-,0.00,Snow,Light Snow,180,2013-01-24 05:40:00
12:53 AM,10.9,6.1,81,30.10,1.0,Calm,Calm,-,0.00,Snow,Light Snow,0,2013-01-24 05:53:00
12:57 AM,10.4,6.8,85,30.04,0.8,Calm,Calm,-,0.00,Snow,Light Snow,0,2013-01-24 05:57:00
1:21 AM,10.4,6.8,85,30.05,0.8,South,3.5,-,0.01,Snow,Light Snow,170,2013-01-24 06:21:00
1:24 AM,10.4,6.8,85,30.05,1.0,South,3.5,-,0.01,Snow,Light Snow,180,2013-01-24 06:24:00
1:35 AM,10.4,6.8,85,30.05,0.8,SSW,3.5,-,0.02,Snow,Light Snow,200,2013-01-24 06:35:00
1:53 AM,10.9,6.1,81,30.12,1.0,Calm,Calm,-,0.03,Snow,Light Snow,0,2013-01-24 06:53:00
2:05 AM,10.4,6.8,85,30.06,1.2,Calm,Calm,-,0.00,Snow,Light Snow,0,2013-01-24 07:05:00
2:11 AM,10.4,6.8,85,30.06,1.0,SW,4.6,-,0.00,Snow,Light Snow,230,2013-01-24 07:11:00
2:18 AM,12.2,6.8,79,30.07,0.8,Variable,3.5,-,0.01,Snow,Light Snow,0,2013-01-24 07:18:00
2:25 AM,12.2,6.8,79,30.07,1.0,WSW,5.8,-,0.01,Snow,Light Snow,240,2013-01-24 07:25:00
2:35 AM,12.2,6.8,79,30.07,1.2,West,3.5,-,0.01,Snow,Light Snow,260,2013-01-24 07:35:00
2:53 AM,12.0,7.0,80,30.14,1.5,West,3.5,-,0.01,Snow,Light Snow,270,2013-01-24 07:53:00
3:02 AM,12.2,6.8,79,30.08,0.8,West,3.5,-,0.01,Snow,Light Snow,260,2013-01-24 08:02:00
3:10 AM,12.2,6.8,79,30.09,1.2,West,4.6,-,0.01,Snow,Light Snow,260,2013-01-24 08:10:00
3:21 AM,12.2,6.8,79,30.09,1.0,West,3.5,-,0.01,Snow,Light Snow,260,2013-01-24 08:21:00
3:29 AM,12.2,6.8,79,30.09,1.2,West,3.5,-,0.01,Snow,Light Snow,260,2013-01-24 08:29:00
3:53 AM,12.0,8.1,84,30.16,1.8,Calm,Calm,-,0.02,Snow,Light Snow,0,2013-01-24 08:53:00
3:58 AM,12.2,8.6,85,30.11,3.0,Calm,Calm,-,0.00,Snow,Light Snow,0,2013-01-24 08:58:00
4:18 AM,15.8,8.6,73,30.12,2.5,NNW,6.9,-,0.00,Snow,Light Snow,340,2013-01-24 09:18:00
4:21 AM,15.8,8.6,73,30.12,3.0,NNW,8.1,-,0.00,Snow,Light Snow,340,2013-01-24 09:21:00
4:53 AM,16.0,5.0,62,30.20,10.0,NNW,10.4,18.4,0.00,,Overcast,340,2013-01-24 09:53:00
5:53 AM,16.0,5.0,62,30.24,10.0,NNW,6.9,-,0.00,,Overcast,330,2013-01-24 10:53:00
6:06 AM,15.8,6.8,68,30.20,2.5,NNW,8.1,16.1,0.00,Snow,Light Snow,340,2013-01-24 11:06:00
6:11 AM,15.8,8.6,73,30.20,1.0,NNW,9.2,18.4,0.00,Snow,Light Snow,340,2013-01-24 11:11:00
6:25 AM,15.8,8.6,73,30.21,0.8,NW,9.2,-,0.00,Snow,Light Snow,320,2013-01-24 11:25:00
6:34 AM,15.8,10.4,79,30.22,1.2,NNW,5.8,-,0.00,Snow,Light Snow,330,2013-01-24 11:34:00
6:38 AM,15.8,10.4,79,30.22,3.0,NNW,6.9,-,0.00,Snow,Light Snow,330,2013-01-24 11:38:00
7:06 AM,15.8,8.6,73,30.24,2.5,North,4.6,-,0.00,Snow,Light Snow,360,2013-01-24 12:06:00
7:25 AM,15.8,10.4,79,30.26,1.2,NNW,5.8,-,0.00,Snow,Light Snow,330,2013-01-24 12:25:00
7:30 AM,15.8,10.4,79,30.26,0.8,NNW,10.4,17.3,0.00,Snow,Light Snow,340,2013-01-24 12:30:00
7:43 AM,15.8,10.4,79,30.27,1.2,North,5.8,-,0.01,Snow,Light Snow,10,2013-01-24 12:43:00
7:47 AM,15.8,10.4,79,30.27,2.0,Variable,5.8,-,0.01,Snow,Light Snow,0,2013-01-24 12:47:00
7:53 AM,16.0,10.0,77,30.33,6.0,North,5.8,-,0.01,Snow,Light Snow,10,2013-01-24 12:53:00
8:06 AM,15.8,8.6,73,30.29,10.0,North,5.8,-,0.00,,Overcast,360,2013-01-24 13:06:00
8:53 AM,17.1,6.1,62,30.39,10.0,North,11.5,18.4,0.00,,Overcast,10,2013-01-24 13:53:00
9:53 AM,17.1,-2.0,43,30.44,10.0,North,15.0,25.3,N/A,,Clear,10,2013-01-24 14:53:00
10:53 AM,17.1,1.0,50,30.49,10.0,NNE,11.5,20.7,N/A,,Partly Cloudy,20,2013-01-24 15:53:00
11:53 AM,18.0,-0.0,45,30.52,10.0,North,11.5,17.3,N/A,,Clear,350,2013-01-24 16:53:00
12:53 PM,17.1,-2.0,43,30.53,10.0,NNW,15.0,21.9,N/A,,Clear,330,2013-01-24 17:53:00
1:53 PM,16.0,1.0,52,30.53,10.0,NNW,9.2,-,N/A,,Partly Cloudy,330,2013-01-24 18:53:00
2:53 PM,16.0,1.0,52,30.56,10.0,NNW,11.5,20.7,N/A,,Overcast,340,2013-01-24 19:53:00
3:53 PM,16.0,1.9,54,30.57,10.0,NNW,9.2,-,N/A,,Overcast,330,2013-01-24 20:53:00
4:45 PM,15.8,3.2,58,30.51,8.0,NNW,8.1,-,0.00,Snow,Light Snow,330,2013-01-24 21:45:00
4:53 PM,15.1,3.0,59,30.57,8.0,NNW,8.1,-,0.00,,Overcast,330,2013-01-24 21:53:00
5:04 PM,15.8,5.0,62,30.51,1.8,NNW,8.1,-,0.00,Snow,Light Snow,340,2013-01-24 22:04:00
5:14 PM,14.0,5.0,67,30.51,3.0,North,3.5,-,0.00,Snow,Light Snow,360,2013-01-24 22:14:00
5:40 PM,15.8,3.2,58,30.52,9.0,NNW,5.8,-,0.00,,Overcast,340,2013-01-24 22:40:00
5:53 PM,14.0,3.9,64,30.58,10.0,NW,3.5,-,0.00,,Overcast,320,2013-01-24 22:53:00
6:11 PM,14.0,3.2,62,30.53,10.0,NW,3.5,-,N/A,,Overcast,310,2013-01-24 23:11:00
6:53 PM,12.9,6.1,74,30.59,8.0,Calm,Calm,-,0.00,Snow,Light Snow,0,2013-01-24 23:53:00
7:01 PM,12.2,5.0,73,30.53,9.0,Calm,Calm,-,0.00,,Mostly Cloudy,0,2013-01-25 00:01:00
7:53 PM,5.0,-0.0,80,30.59,10.0,Calm,Calm,-,0.00,,Overcast,0,2013-01-25 00:53:00
8:02 PM,8.6,1.4,73,30.53,10.0,Calm,Calm,-,N/A,,Overcast,0,2013-01-25 01:02:00
8:53 PM,8.1,3.0,80,30.57,6.0,Calm,Calm,-,0.00,Snow,Light Snow,0,2013-01-25 01:53:00
9:49 PM,5.0,-0.4,78,30.50,10.0,SSW,3.5,-,0.00,,Scattered Clouds,200,2013-01-25 02:49:00
9:53 PM,5.0,-0.9,76,30.56,10.0,Calm,Calm,-,0.00,,Scattered Clouds,0,2013-01-25 02:53:00
10:53 PM,6.1,1.0,80,30.56,6.0,Calm,Calm,-,0.00,Snow,Light Snow,0,2013-01-25 03:53:00
11:03 PM,6.8,1.4,79,30.50,8.0,Calm,Calm,-,0.00,,Overcast,0,2013-01-25 04:03:00
11:53 PM,7.0,1.9,80,30.56,10.0,Calm,Calm,-,0.00,,Overcast,0,2013-01-25 04:53:00